sensor_id;sensor_type;location;lat;lon;timestamp;P1;durP1;ratioP1;P2;durP2;ratioP2
67195;SDS011;54122;53.538;49.366;2023-07-13T00:00:38;1.23;;;0.55;;
67195;SDS011;54122;53.538;49.366;2023-07-13T00:03:04;2.33;;;0.75;;
67195;SDS011;54122;53.538;49.366;2023-07-13T00:05:30;0.55;;;0.43;;
67195;SDS011;54122;53.538;49.366;2023-07-13T00:07:57;1.67;;;0.63;;
67195;SDS011;54122;53.538;49.366;2023-07-13T00:10:23;10.23;;;0.82;;
67195;SDS011;54122;53.538;49.366;2023-07-13T00:12:49;1.05;;;0.75;;
67195;SDS011;54122;53.538;49.366;2023-07-13T00:15:21;2.72;;;0.70;;
67195;SDS011;54122;53.538;49.366;2023-07-13T00:17:51;0.70;;;0.60;;
67195;SDS011;54122;53.538;49.366;2023-07-13T00:20:20;0.88;;;0.60;;
67195;SDS011;54122;53.538;49.366;2023-07-13T00:22:47;0.77;;;0.70;;
67195;SDS011;54122;53.538;49.366;2023-07-13T00:25:14;1.25;;;0.82;;
67195;SDS011;54122;53.538;49.366;2023-07-13T00:27:42;1.27;;;0.70;;
67195;SDS011;54122;53.538;49.366;2023-07-13T00:30:09;1.75;;;0.73;;
67195;SDS011;54122;53.538;49.366;2023-07-13T00:32:36;0.68;;;0.55;;
67195;SDS011;54122;53.538;49.366;2023-07-13T00:35:03;2.97;;;0.60;;
67195;SDS011;54122;53.538;49.366;2023-07-13T00:37:30;3.00;;;0.80;;
67195;SDS011;54122;53.538;49.366;2023-07-13T00:39:57;1.10;;;0.70;;
67195;SDS011;54122;53.538;49.366;2023-07-13T00:42:23;1.65;;;0.77;;
67195;SDS011;54122;53.538;49.366;2023-07-13T00:47:38;0.70;;;0.52;;
67195;SDS011;54122;53.538;49.366;2023-07-13T00:50:06;1.23;;;0.70;;
67195;SDS011;54122;53.538;49.366;2023-07-13T00:52:35;1.05;;;0.63;;
67195;SDS011;54122;53.538;49.366;2023-07-13T00:55:03;1.35;;;0.73;;
67195;SDS011;54122;53.538;49.366;2023-07-13T00:57:30;2.33;;;0.75;;
67195;SDS011;54122;53.538;49.366;2023-07-13T00:59:57;1.52;;;0.75;;
67195;SDS011;54122;53.538;49.366;2023-07-13T01:02:32;3.53;;;0.98;;
67195;SDS011;54122;53.538;49.366;2023-07-13T01:04:59;1.75;;;1.10;;
67195;SDS011;54122;53.538;49.366;2023-07-13T01:07:27;2.90;;;0.82;;
67195;SDS011;54122;53.538;49.366;2023-07-13T01:09:53;1.98;;;1.00;;
67195;SDS011;54122;53.538;49.366;2023-07-13T01:12:19;1.60;;;1.15;;
67195;SDS011;54122;53.538;49.366;2023-07-13T01:14:45;2.42;;;1.27;;
67195;SDS011;54122;53.538;49.366;2023-07-13T01:17:12;3.20;;;0.82;;
67195;SDS011;54122;53.538;49.366;2023-07-13T01:19:46;2.78;;;0.68;;
67195;SDS011;54122;53.538;49.366;2023-07-13T01:22:13;1.65;;;0.95;;
67195;SDS011;54122;53.538;49.366;2023-07-13T01:24:42;3.38;;;0.70;;
67195;SDS011;54122;53.538;49.366;2023-07-13T01:27:11;0.82;;;0.60;;
67195;SDS011;54122;53.538;49.366;2023-07-13T01:29:40;2.40;;;0.88;;
67195;SDS011;54122;53.538;49.366;2023-07-13T01:32:11;0.98;;;0.60;;
67195;SDS011;54122;53.538;49.366;2023-07-13T01:37:08;1.35;;;0.75;;
67195;SDS011;54122;53.538;49.366;2023-07-13T01:39:35;1.67;;;0.80;;
67195;SDS011;54122;53.538;49.366;2023-07-13T01:42:02;2.05;;;0.75;;
67195;SDS011;54122;53.538;49.366;2023-07-13T01:44:29;0.60;;;0.45;;
67195;SDS011;54122;53.538;49.366;2023-07-13T01:46:55;1.65;;;0.80;;
67195;SDS011;54122;53.538;49.366;2023-07-13T01:49:21;2.72;;;0.80;;
67195;SDS011;54122;53.538;49.366;2023-07-13T01:51:48;1.30;;;0.52;;
67195;SDS011;54122;53.538;49.366;2023-07-13T01:54:14;1.10;;;0.77;;
67195;SDS011;54122;53.538;49.366;2023-07-13T01:56:40;7.35;;;0.90;;
67195;SDS011;54122;53.538;49.366;2023-07-13T01:59:07;1.85;;;0.73;;
67195;SDS011;54122;53.538;49.366;2023-07-13T02:01:34;0.82;;;0.60;;
67195;SDS011;54122;53.538;49.366;2023-07-13T02:04:00;2.42;;;0.40;;
67195;SDS011;54122;53.538;49.366;2023-07-13T02:06:27;1.27;;;0.80;;
67195;SDS011;54122;53.538;49.366;2023-07-13T02:08:53;1.33;;;0.55;;
67195;SDS011;54122;53.538;49.366;2023-07-13T02:11:19;2.13;;;0.80;;
67195;SDS011;54122;53.538;49.366;2023-07-13T02:13:46;2.30;;;0.88;;
67195;SDS011;54122;53.538;49.366;2023-07-13T02:16:12;4.47;;;0.63;;
67195;SDS011;54122;53.538;49.366;2023-07-13T02:18:38;2.45;;;1.00;;
67195;SDS011;54122;53.538;49.366;2023-07-13T02:21:04;6.63;;;0.70;;
67195;SDS011;54122;53.538;49.366;2023-07-13T02:23:31;4.93;;;0.68;;
67195;SDS011;54122;53.538;49.366;2023-07-13T02:25:58;1.85;;;0.40;;
67195;SDS011;54122;53.538;49.366;2023-07-13T02:28:28;1.48;;;0.65;;
67195;SDS011;54122;53.538;49.366;2023-07-13T02:30:54;9.88;;;0.90;;
67195;SDS011;54122;53.538;49.366;2023-07-13T02:33:20;1.65;;;0.93;;
67195;SDS011;54122;53.538;49.366;2023-07-13T02:35:46;1.85;;;0.70;;
67195;SDS011;54122;53.538;49.366;2023-07-13T02:38:12;1.33;;;0.63;;
67195;SDS011;54122;53.538;49.366;2023-07-13T02:40:38;0.93;;;0.65;;
67195;SDS011;54122;53.538;49.366;2023-07-13T02:43:04;0.55;;;0.45;;
67195;SDS011;54122;53.538;49.366;2023-07-13T02:45:31;0.85;;;0.50;;
67195;SDS011;54122;53.538;49.366;2023-07-13T02:47:57;0.98;;;0.55;;
67195;SDS011;54122;53.538;49.366;2023-07-13T02:50:23;1.38;;;0.70;;
67195;SDS011;54122;53.538;49.366;2023-07-13T02:52:49;0.68;;;0.40;;
67195;SDS011;54122;53.538;49.366;2023-07-13T02:55:15;0.80;;;0.70;;
67195;SDS011;54122;53.538;49.366;2023-07-13T02:57:42;1.98;;;0.77;;
67195;SDS011;54122;53.538;49.366;2023-07-13T03:00:08;0.95;;;0.68;;
67195;SDS011;54122;53.538;49.366;2023-07-13T03:02:34;1.40;;;0.70;;
67195;SDS011;54122;53.538;49.366;2023-07-13T03:05:01;1.27;;;0.57;;
67195;SDS011;54122;53.538;49.366;2023-07-13T03:07:28;2.47;;;0.60;;
67195;SDS011;54122;53.538;49.366;2023-07-13T03:09:56;1.08;;;0.60;;
67195;SDS011;54122;53.538;49.366;2023-07-13T03:12:23;4.38;;;0.55;;
67195;SDS011;54122;53.538;49.366;2023-07-13T03:14:49;2.15;;;0.70;;
67195;SDS011;54122;53.538;49.366;2023-07-13T03:17:16;1.35;;;0.73;;
67195;SDS011;54122;53.538;49.366;2023-07-13T03:19:43;0.70;;;0.50;;
67195;SDS011;54122;53.538;49.366;2023-07-13T03:22:09;2.30;;;0.60;;
67195;SDS011;54122;53.538;49.366;2023-07-13T03:24:35;0.98;;;0.63;;
67195;SDS011;54122;53.538;49.366;2023-07-13T03:27:04;2.03;;;0.70;;
67195;SDS011;54122;53.538;49.366;2023-07-13T03:29:31;1.42;;;0.50;;
67195;SDS011;54122;53.538;49.366;2023-07-13T03:31:58;1.52;;;0.80;;
67195;SDS011;54122;53.538;49.366;2023-07-13T03:34:24;3.40;;;0.75;;
67195;SDS011;54122;53.538;49.366;2023-07-13T03:36:50;0.85;;;0.68;;
67195;SDS011;54122;53.538;49.366;2023-07-13T03:39:19;1.55;;;0.80;;
67195;SDS011;54122;53.538;49.366;2023-07-13T03:41:45;1.98;;;0.65;;
67195;SDS011;54122;53.538;49.366;2023-07-13T03:44:11;0.80;;;0.60;;
67195;SDS011;54122;53.538;49.366;2023-07-13T03:46:37;7.30;;;0.55;;
67195;SDS011;54122;53.538;49.366;2023-07-13T03:49:04;0.98;;;0.60;;
67195;SDS011;54122;53.538;49.366;2023-07-13T03:51:31;0.85;;;0.50;;
67195;SDS011;54122;53.538;49.366;2023-07-13T03:53:57;3.08;;;0.60;;
67195;SDS011;54122;53.538;49.366;2023-07-13T03:56:23;3.45;;;0.73;;
67195;SDS011;54122;53.538;49.366;2023-07-13T03:58:49;1.15;;;0.63;;
67195;SDS011;54122;53.538;49.366;2023-07-13T04:01:17;1.48;;;0.70;;
67195;SDS011;54122;53.538;49.366;2023-07-13T04:03:45;1.20;;;0.70;;
67195;SDS011;54122;53.538;49.366;2023-07-13T04:06:18;1.13;;;0.70;;
67195;SDS011;54122;53.538;49.366;2023-07-13T04:08:50;0.77;;;0.70;;
67195;SDS011;54122;53.538;49.366;2023-07-13T04:11:19;2.28;;;0.63;;
67195;SDS011;54122;53.538;49.366;2023-07-13T04:13:46;0.55;;;0.55;;
67195;SDS011;54122;53.538;49.366;2023-07-13T04:16:14;1.02;;;0.40;;
67195;SDS011;54122;53.538;49.366;2023-07-13T04:18:41;6.13;;;1.05;;
67195;SDS011;54122;53.538;49.366;2023-07-13T04:21:07;1.38;;;0.52;;
67195;SDS011;54122;53.538;49.366;2023-07-13T04:23:35;1.67;;;0.60;;
67195;SDS011;54122;53.538;49.366;2023-07-13T04:26:02;0.60;;;0.50;;
67195;SDS011;54122;53.538;49.366;2023-07-13T04:28:28;1.05;;;0.52;;
67195;SDS011;54122;53.538;49.366;2023-07-13T04:30:54;1.00;;;0.90;;
67195;SDS011;54122;53.538;49.366;2023-07-13T04:33:21;1.50;;;0.82;;
67195;SDS011;54122;53.538;49.366;2023-07-13T04:35:51;0.50;;;0.50;;
67195;SDS011;54122;53.538;49.366;2023-07-13T04:38:22;1.08;;;0.70;;
67195;SDS011;54122;53.538;49.366;2023-07-13T04:40:50;2.55;;;0.88;;
67195;SDS011;54122;53.538;49.366;2023-07-13T04:43:17;1.65;;;0.95;;
67195;SDS011;54122;53.538;49.366;2023-07-13T04:45:43;1.90;;;0.60;;
67195;SDS011;54122;53.538;49.366;2023-07-13T04:48:10;1.95;;;0.80;;
67195;SDS011;54122;53.538;49.366;2023-07-13T04:50:36;1.90;;;0.90;;
67195;SDS011;54122;53.538;49.366;2023-07-13T04:53:03;1.92;;;1.00;;
67195;SDS011;54122;53.538;49.366;2023-07-13T04:55:29;1.85;;;0.82;;
67195;SDS011;54122;53.538;49.366;2023-07-13T04:57:57;1.20;;;0.90;;
67195;SDS011;54122;53.538;49.366;2023-07-13T05:00:26;2.35;;;1.02;;
67195;SDS011;54122;53.538;49.366;2023-07-13T05:02:54;3.28;;;0.82;;
67195;SDS011;54122;53.538;49.366;2023-07-13T05:05:21;2.40;;;0.85;;
67195;SDS011;54122;53.538;49.366;2023-07-13T05:07:47;1.83;;;0.80;;
67195;SDS011;54122;53.538;49.366;2023-07-13T05:10:13;1.40;;;0.90;;
67195;SDS011;54122;53.538;49.366;2023-07-13T05:12:40;2.45;;;1.10;;
67195;SDS011;54122;53.538;49.366;2023-07-13T05:15:06;1.00;;;0.70;;
67195;SDS011;54122;53.538;49.366;2023-07-13T05:17:33;1.42;;;0.85;;
67195;SDS011;54122;53.538;49.366;2023-07-13T05:20:00;1.20;;;0.77;;
67195;SDS011;54122;53.538;49.366;2023-07-13T05:22:26;1.85;;;0.98;;
67195;SDS011;54122;53.538;49.366;2023-07-13T05:24:52;2.58;;;0.75;;
67195;SDS011;54122;53.538;49.366;2023-07-13T05:27:18;2.90;;;1.10;;
67195;SDS011;54122;53.538;49.366;2023-07-13T05:29:45;1.65;;;0.80;;
67195;SDS011;54122;53.538;49.366;2023-07-13T05:32:11;1.50;;;1.08;;
67195;SDS011;54122;53.538;49.366;2023-07-13T05:34:37;5.93;;;1.30;;
67195;SDS011;54122;53.538;49.366;2023-07-13T05:37:03;4.25;;;1.20;;
67195;SDS011;54122;53.538;49.366;2023-07-13T05:39:30;1.65;;;1.10;;
67195;SDS011;54122;53.538;49.366;2023-07-13T05:41:56;1.73;;;1.10;;
67195;SDS011;54122;53.538;49.366;2023-07-13T05:44:22;2.28;;;1.42;;
67195;SDS011;54122;53.538;49.366;2023-07-13T05:46:49;7.45;;;1.13;;
67195;SDS011;54122;53.538;49.366;2023-07-13T05:49:15;2.35;;;1.10;;
67195;SDS011;54122;53.538;49.366;2023-07-13T05:51:42;3.15;;;1.65;;
67195;SDS011;54122;53.538;49.366;2023-07-13T05:54:08;2.15;;;0.80;;
67195;SDS011;54122;53.538;49.366;2023-07-13T05:56:35;1.77;;;1.08;;
67195;SDS011;54122;53.538;49.366;2023-07-13T05:59:01;1.80;;;1.10;;
67195;SDS011;54122;53.538;49.366;2023-07-13T06:01:29;1.98;;;0.95;;
67195;SDS011;54122;53.538;49.366;2023-07-13T06:03:56;1.38;;;0.98;;
67195;SDS011;54122;53.538;49.366;2023-07-13T06:06:23;3.15;;;0.98;;
67195;SDS011;54122;53.538;49.366;2023-07-13T06:08:49;4.18;;;1.15;;
67195;SDS011;54122;53.538;49.366;2023-07-13T06:11:17;1.48;;;1.25;;
67195;SDS011;54122;53.538;49.366;2023-07-13T06:13:45;1.40;;;0.77;;
67195;SDS011;54122;53.538;49.366;2023-07-13T06:16:12;10.20;;;1.10;;
67195;SDS011;54122;53.538;49.366;2023-07-13T06:18:39;1.05;;;0.90;;
67195;SDS011;54122;53.538;49.366;2023-07-13T06:21:13;2.13;;;0.98;;
67195;SDS011;54122;53.538;49.366;2023-07-13T06:23:44;2.03;;;1.30;;
67195;SDS011;54122;53.538;49.366;2023-07-13T06:26:13;1.50;;;1.02;;
67195;SDS011;54122;53.538;49.366;2023-07-13T06:28:39;1.50;;;0.93;;
67195;SDS011;54122;53.538;49.366;2023-07-13T06:31:07;2.38;;;1.23;;
67195;SDS011;54122;53.538;49.366;2023-07-13T06:33:34;1.23;;;0.90;;
67195;SDS011;54122;53.538;49.366;2023-07-13T06:36:01;1.25;;;0.93;;
67195;SDS011;54122;53.538;49.366;2023-07-13T06:38:28;1.20;;;0.77;;
67195;SDS011;54122;53.538;49.366;2023-07-13T06:40:54;1.90;;;0.90;;
67195;SDS011;54122;53.538;49.366;2023-07-13T06:43:20;5.25;;;1.10;;
67195;SDS011;54122;53.538;49.366;2023-07-13T06:45:48;1.42;;;0.88;;
67195;SDS011;54122;53.538;49.366;2023-07-13T06:48:15;1.52;;;0.98;;
67195;SDS011;54122;53.538;49.366;2023-07-13T06:50:43;1.10;;;0.85;;
67195;SDS011;54122;53.538;49.366;2023-07-13T06:53:10;1.40;;;0.80;;
67195;SDS011;54122;53.538;49.366;2023-07-13T06:55:37;1.50;;;0.80;;
67195;SDS011;54122;53.538;49.366;2023-07-13T06:58:03;2.78;;;0.70;;
67195;SDS011;54122;53.538;49.366;2023-07-13T07:00:30;1.35;;;0.80;;
67195;SDS011;54122;53.538;49.366;2023-07-13T07:02:56;3.75;;;0.80;;
67195;SDS011;54122;53.538;49.366;2023-07-13T07:05:22;1.15;;;0.50;;
67195;SDS011;54122;53.538;49.366;2023-07-13T07:07:53;1.83;;;0.90;;
67195;SDS011;54122;53.538;49.366;2023-07-13T07:10:20;1.38;;;0.70;;
67195;SDS011;54122;53.538;49.366;2023-07-13T07:12:46;1.92;;;0.70;;
67195;SDS011;54122;53.538;49.366;2023-07-13T07:15:14;1.17;;;0.70;;
67195;SDS011;54122;53.538;49.366;2023-07-13T07:17:41;3.10;;;0.70;;
67195;SDS011;54122;53.538;49.366;2023-07-13T07:20:07;2.03;;;0.80;;
67195;SDS011;54122;53.538;49.366;2023-07-13T07:22:34;1.40;;;0.70;;
67195;SDS011;54122;53.538;49.366;2023-07-13T07:25:00;5.03;;;0.70;;
67195;SDS011;54122;53.538;49.366;2023-07-13T07:27:26;1.00;;;0.80;;
67195;SDS011;54122;53.538;49.366;2023-07-13T07:29:52;0.80;;;0.70;;
67195;SDS011;54122;53.538;49.366;2023-07-13T07:32:19;0.93;;;0.68;;
67195;SDS011;54122;53.538;49.366;2023-07-13T07:34:45;3.08;;;0.80;;
67195;SDS011;54122;53.538;49.366;2023-07-13T07:37:13;1.13;;;0.75;;
67195;SDS011;54122;53.538;49.366;2023-07-13T07:39:39;1.40;;;0.70;;
67195;SDS011;54122;53.538;49.366;2023-07-13T07:42:06;2.35;;;0.60;;
67195;SDS011;54122;53.538;49.366;2023-07-13T07:44:33;0.95;;;0.68;;
67195;SDS011;54122;53.538;49.366;2023-07-13T07:46:59;1.65;;;0.70;;
67195;SDS011;54122;53.538;49.366;2023-07-13T07:49:26;1.48;;;0.60;;
67195;SDS011;54122;53.538;49.366;2023-07-13T07:51:52;0.40;;;0.40;;
67195;SDS011;54122;53.538;49.366;2023-07-13T07:54:19;2.28;;;0.60;;
67195;SDS011;54122;53.538;49.366;2023-07-13T07:56:45;6.55;;;0.73;;
67195;SDS011;54122;53.538;49.366;2023-07-13T07:59:11;0.70;;;0.47;;
67195;SDS011;54122;53.538;49.366;2023-07-13T08:01:37;1.13;;;0.40;;
67195;SDS011;54122;53.538;49.366;2023-07-13T08:04:03;2.22;;;0.57;;
67195;SDS011;54122;53.538;49.366;2023-07-13T08:06:31;0.90;;;0.50;;
67195;SDS011;54122;53.538;49.366;2023-07-13T08:08:59;1.27;;;0.60;;
67195;SDS011;54122;53.538;49.366;2023-07-13T08:11:25;0.95;;;0.40;;
67195;SDS011;54122;53.538;49.366;2023-07-13T08:13:51;0.52;;;0.38;;
67195;SDS011;54122;53.538;49.366;2023-07-13T08:16:19;4.38;;;0.50;;
67195;SDS011;54122;53.538;49.366;2023-07-13T08:18:45;2.15;;;0.52;;
67195;SDS011;54122;53.538;49.366;2023-07-13T08:21:12;0.88;;;0.50;;
67195;SDS011;54122;53.538;49.366;2023-07-13T08:23:38;2.55;;;0.50;;
67195;SDS011;54122;53.538;49.366;2023-07-13T08:26:04;3.72;;;0.82;;
67195;SDS011;54122;53.538;49.366;2023-07-13T08:28:31;0.82;;;0.40;;
67195;SDS011;54122;53.538;49.366;2023-07-13T08:31:04;0.68;;;0.52;;
67195;SDS011;54122;53.538;49.366;2023-07-13T08:33:34;1.33;;;0.77;;
67195;SDS011;54122;53.538;49.366;2023-07-13T08:36:02;7.55;;;0.70;;
67195;SDS011;54122;53.538;49.366;2023-07-13T08:38:28;0.68;;;0.55;;
67195;SDS011;54122;53.538;49.366;2023-07-13T08:40:55;0.95;;;0.68;;
67195;SDS011;54122;53.538;49.366;2023-07-13T08:43:26;6.05;;;0.90;;
67195;SDS011;54122;53.538;49.366;2023-07-13T08:45:58;2.13;;;0.60;;
67195;SDS011;54122;53.538;49.366;2023-07-13T08:48:33;1.50;;;0.68;;
67195;SDS011;54122;53.538;49.366;2023-07-13T08:51:15;1.63;;;0.82;;
67195;SDS011;54122;53.538;49.366;2023-07-13T08:54:00;0.80;;;0.60;;
67195;SDS011;54122;53.538;49.366;2023-07-13T08:56:29;1.00;;;0.70;;
67195;SDS011;54122;53.538;49.366;2023-07-13T08:58:58;2.05;;;0.60;;
67195;SDS011;54122;53.538;49.366;2023-07-13T09:01:45;0.82;;;0.60;;
67195;SDS011;54122;53.538;49.366;2023-07-13T09:07:16;1.13;;;0.60;;
67195;SDS011;54122;53.538;49.366;2023-07-13T09:16:08;2.03;;;0.70;;
67195;SDS011;54122;53.538;49.366;2023-07-13T09:23:41;1.50;;;0.70;;
67195;SDS011;54122;53.538;49.366;2023-07-13T09:26:13;0.80;;;0.50;;
67195;SDS011;54122;53.538;49.366;2023-07-13T09:28:52;1.27;;;0.70;;
67195;SDS011;54122;53.538;49.366;2023-07-13T09:34:02;1.20;;;0.70;;
67195;SDS011;54122;53.538;49.366;2023-07-13T09:36:35;1.42;;;0.77;;
67195;SDS011;54122;53.538;49.366;2023-07-13T09:39:10;2.05;;;0.95;;
67195;SDS011;54122;53.538;49.366;2023-07-13T09:44:44;5.95;;;1.08;;
67195;SDS011;54122;53.538;49.366;2023-07-13T09:47:19;3.92;;;1.08;;
67195;SDS011;54122;53.538;49.366;2023-07-13T09:49:56;3.65;;;1.02;;
67195;SDS011;54122;53.538;49.366;2023-07-13T09:52:25;1.15;;;0.85;;
67195;SDS011;54122;53.538;49.366;2023-07-13T09:54:53;2.20;;;1.20;;
67195;SDS011;54122;53.538;49.366;2023-07-13T09:57:25;2.80;;;1.08;;
67195;SDS011;54122;53.538;49.366;2023-07-13T09:59:54;5.43;;;1.55;;
67195;SDS011;54122;53.538;49.366;2023-07-13T10:05:07;5.30;;;1.25;;
67195;SDS011;54122;53.538;49.366;2023-07-13T10:07:40;3.50;;;1.40;;
67195;SDS011;54122;53.538;49.366;2023-07-13T10:10:19;3.83;;;1.38;;
67195;SDS011;54122;53.538;49.366;2023-07-13T10:12:48;7.38;;;1.42;;
67195;SDS011;54122;53.538;49.366;2023-07-13T10:15:20;1.38;;;1.10;;
67195;SDS011;54122;53.538;49.366;2023-07-13T10:17:53;7.90;;;1.35;;
67195;SDS011;54122;53.538;49.366;2023-07-13T10:20:20;4.00;;;1.40;;
67195;SDS011;54122;53.538;49.366;2023-07-13T10:25:21;1.75;;;0.90;;
67195;SDS011;54122;53.538;49.366;2023-07-13T10:27:53;6.70;;;0.90;;
67195;SDS011;54122;53.538;49.366;2023-07-13T15:18:40;0.73;;;0.50;;
67195;SDS011;54122;53.538;49.366;2023-07-13T15:21:17;0.55;;;0.40;;
67195;SDS011;54122;53.538;49.366;2023-07-13T15:23:48;2.97;;;0.68;;
67195;SDS011;54122;53.538;49.366;2023-07-13T15:26:16;0.80;;;0.60;;
67195;SDS011;54122;53.538;49.366;2023-07-13T15:28:48;1.45;;;0.60;;
67195;SDS011;54122;53.538;49.366;2023-07-13T15:31:19;0.80;;;0.40;;
67195;SDS011;54122;53.538;49.366;2023-07-13T15:33:52;2.22;;;0.80;;
67195;SDS011;54122;53.538;49.366;2023-07-13T15:36:20;2.17;;;0.60;;
67195;SDS011;54122;53.538;49.366;2023-07-13T15:38:48;1.30;;;0.70;;
67195;SDS011;54122;53.538;49.366;2023-07-13T15:41:17;4.65;;;0.75;;
67195;SDS011;54122;53.538;49.366;2023-07-13T15:43:46;1.23;;;0.40;;
67195;SDS011;54122;53.538;49.366;2023-07-13T15:46:12;3.05;;;0.90;;
67195;SDS011;54122;53.538;49.366;2023-07-13T15:48:42;3.83;;;0.77;;
67195;SDS011;54122;53.538;49.366;2023-07-13T15:51:13;1.02;;;0.50;;
67195;SDS011;54122;53.538;49.366;2023-07-13T15:54:00;5.47;;;0.45;;
67195;SDS011;54122;53.538;49.366;2023-07-13T15:56:34;4.00;;;0.52;;
67195;SDS011;54122;53.538;49.366;2023-07-13T15:59:03;1.58;;;0.65;;
67195;SDS011;54122;53.538;49.366;2023-07-13T16:01:38;0.80;;;0.50;;
67195;SDS011;54122;53.538;49.366;2023-07-13T16:04:06;1.00;;;0.57;;
67195;SDS011;54122;53.538;49.366;2023-07-13T16:06:33;14.88;;;4.50;;
67195;SDS011;54122;53.538;49.366;2023-07-13T16:09:02;11.27;;;6.47;;
67195;SDS011;54122;53.538;49.366;2023-07-13T16:11:34;13.80;;;6.75;;
67195;SDS011;54122;53.538;49.366;2023-07-13T16:14:02;1.63;;;0.95;;
67195;SDS011;54122;53.538;49.366;2023-07-13T16:16:31;3.38;;;1.73;;
67195;SDS011;54122;53.538;49.366;2023-07-13T16:18:59;2.42;;;1.83;;
67195;SDS011;54122;53.538;49.366;2023-07-13T16:21:29;1.00;;;0.77;;
67195;SDS011;54122;53.538;49.366;2023-07-13T16:23:57;4.35;;;0.90;;
67195;SDS011;54122;53.538;49.366;2023-07-13T16:26:32;2.03;;;0.80;;
67195;SDS011;54122;53.538;49.366;2023-07-13T16:29:30;1.10;;;0.63;;
67195;SDS011;54122;53.538;49.366;2023-07-13T16:32:02;2.60;;;0.60;;
67195;SDS011;54122;53.538;49.366;2023-07-13T16:34:36;2.38;;;0.63;;
67195;SDS011;54122;53.538;49.366;2023-07-13T16:37:25;1.58;;;0.68;;
67195;SDS011;54122;53.538;49.366;2023-07-13T16:39:54;9.23;;;0.85;;
67195;SDS011;54122;53.538;49.366;2023-07-13T16:42:24;1.95;;;0.75;;
67195;SDS011;54122;53.538;49.366;2023-07-13T16:44:50;0.70;;;0.50;;
67195;SDS011;54122;53.538;49.366;2023-07-13T16:47:17;1.75;;;0.82;;
67195;SDS011;54122;53.538;49.366;2023-07-13T16:49:44;6.15;;;0.73;;
67195;SDS011;54122;53.538;49.366;2023-07-13T16:52:12;11.75;;;1.00;;
67195;SDS011;54122;53.538;49.366;2023-07-13T16:54:40;0.90;;;0.60;;
67195;SDS011;54122;53.538;49.366;2023-07-13T16:57:14;1.15;;;0.60;;
67195;SDS011;54122;53.538;49.366;2023-07-13T16:59:46;3.15;;;0.63;;
67195;SDS011;54122;53.538;49.366;2023-07-13T17:02:28;1.38;;;0.70;;
67195;SDS011;54122;53.538;49.366;2023-07-13T17:05:00;4.80;;;1.00;;
67195;SDS011;54122;53.538;49.366;2023-07-13T17:07:28;3.78;;;0.77;;
67195;SDS011;54122;53.538;49.366;2023-07-13T17:09:56;5.80;;;0.93;;
67195;SDS011;54122;53.538;49.366;2023-07-13T17:12:23;4.88;;;0.65;;
67195;SDS011;54122;53.538;49.366;2023-07-13T17:14:52;0.85;;;0.60;;
67195;SDS011;54122;53.538;49.366;2023-07-13T17:19:54;5.00;;;0.75;;
67195;SDS011;54122;53.538;49.366;2023-07-13T17:22:21;2.47;;;0.80;;
67195;SDS011;54122;53.538;49.366;2023-07-13T17:24:47;2.35;;;0.60;;
67195;SDS011;54122;53.538;49.366;2023-07-13T17:27:17;2.78;;;0.98;;
67195;SDS011;54122;53.538;49.366;2023-07-13T17:29:43;3.67;;;0.70;;
67195;SDS011;54122;53.538;49.366;2023-07-13T17:32:17;8.07;;;1.30;;
67195;SDS011;54122;53.538;49.366;2023-07-13T17:34:44;2.92;;;1.55;;
67195;SDS011;54122;53.538;49.366;2023-07-13T17:37:14;11.23;;;2.95;;
67195;SDS011;54122;53.538;49.366;2023-07-13T17:39:46;4.32;;;1.25;;
67195;SDS011;54122;53.538;49.366;2023-07-13T17:42:13;10.98;;;4.72;;
67195;SDS011;54122;53.538;49.366;2023-07-13T17:44:39;3.90;;;2.13;;
67195;SDS011;54122;53.538;49.366;2023-07-13T17:47:10;3.60;;;1.85;;
67195;SDS011;54122;53.538;49.366;2023-07-13T17:49:48;8.27;;;3.65;;
67195;SDS011;54122;53.538;49.366;2023-07-13T17:52:15;3.72;;;1.27;;
67195;SDS011;54122;53.538;49.366;2023-07-13T17:54:44;3.17;;;1.20;;
67195;SDS011;54122;53.538;49.366;2023-07-13T17:57:10;5.00;;;1.20;;
67195;SDS011;54122;53.538;49.366;2023-07-13T17:59:37;2.13;;;1.00;;
67195;SDS011;54122;53.538;49.366;2023-07-13T18:02:08;2.83;;;0.80;;
67195;SDS011;54122;53.538;49.366;2023-07-13T18:04:50;7.38;;;0.88;;
67195;SDS011;54122;53.538;49.366;2023-07-13T18:07:17;1.75;;;0.93;;
67195;SDS011;54122;53.538;49.366;2023-07-13T18:09:46;1.75;;;1.00;;
67195;SDS011;54122;53.538;49.366;2023-07-13T18:12:12;3.92;;;1.20;;
67195;SDS011;54122;53.538;49.366;2023-07-13T18:14:40;7.13;;;1.02;;
67195;SDS011;54122;53.538;49.366;2023-07-13T18:17:07;1.58;;;0.80;;
67195;SDS011;54122;53.538;49.366;2023-07-13T18:22:10;4.47;;;0.90;;
67195;SDS011;54122;53.538;49.366;2023-07-13T18:27:05;2.60;;;1.00;;
67195;SDS011;54122;53.538;49.366;2023-07-13T18:29:33;3.58;;;0.90;;
67195;SDS011;54122;53.538;49.366;2023-07-13T18:32:00;1.92;;;1.00;;
67195;SDS011;54122;53.538;49.366;2023-07-13T18:34:35;7.10;;;0.80;;
67195;SDS011;54122;53.538;49.366;2023-07-13T18:37:09;2.72;;;0.77;;
67195;SDS011;54122;53.538;49.366;2023-07-13T18:39:44;1.92;;;0.80;;
67195;SDS011;54122;53.538;49.366;2023-07-13T18:42:11;3.15;;;0.80;;
67195;SDS011;54122;53.538;49.366;2023-07-13T18:44:37;5.80;;;0.93;;
67195;SDS011;54122;53.538;49.366;2023-07-13T18:47:03;2.92;;;0.98;;
67195;SDS011;54122;53.538;49.366;2023-07-13T18:49:30;4.78;;;1.13;;
67195;SDS011;54122;53.538;49.366;2023-07-13T18:51:56;5.03;;;0.90;;
67195;SDS011;54122;53.538;49.366;2023-07-13T18:54:24;3.30;;;0.98;;
67195;SDS011;54122;53.538;49.366;2023-07-13T18:56:52;4.53;;;1.00;;
67195;SDS011;54122;53.538;49.366;2023-07-13T18:59:18;7.35;;;1.27;;
67195;SDS011;54122;53.538;49.366;2023-07-13T19:01:48;4.32;;;1.10;;
67195;SDS011;54122;53.538;49.366;2023-07-13T19:06:54;3.95;;;0.73;;
67195;SDS011;54122;53.538;49.366;2023-07-13T19:09:21;8.35;;;1.10;;
67195;SDS011;54122;53.538;49.366;2023-07-13T19:11:47;6.30;;;1.08;;
67195;SDS011;54122;53.538;49.366;2023-07-13T19:14:19;8.75;;;1.30;;
67195;SDS011;54122;53.538;49.366;2023-07-13T19:16:48;6.18;;;0.95;;
67195;SDS011;54122;53.538;49.366;2023-07-13T19:19:15;5.43;;;0.90;;
67195;SDS011;54122;53.538;49.366;2023-07-13T19:21:43;4.72;;;1.10;;
67195;SDS011;54122;53.538;49.366;2023-07-13T19:24:12;3.05;;;1.10;;
67195;SDS011;54122;53.538;49.366;2023-07-13T19:26:44;4.20;;;1.02;;
67195;SDS011;54122;53.538;49.366;2023-07-13T19:29:16;6.40;;;1.10;;
67195;SDS011;54122;53.538;49.366;2023-07-13T19:31:45;1.27;;;0.88;;
67195;SDS011;54122;53.538;49.366;2023-07-13T19:36:46;9.32;;;1.15;;
67195;SDS011;54122;53.538;49.366;2023-07-13T19:39:17;4.25;;;1.10;;
67195;SDS011;54122;53.538;49.366;2023-07-13T19:42:18;1.95;;;0.73;;
67195;SDS011;54122;53.538;49.366;2023-07-13T19:44:47;3.15;;;1.05;;
67195;SDS011;54122;53.538;49.366;2023-07-13T19:47:14;1.50;;;1.00;;
67195;SDS011;54122;53.538;49.366;2023-07-13T19:49:42;5.60;;;1.30;;
67195;SDS011;54122;53.538;49.366;2023-07-13T19:52:09;4.35;;;1.08;;
67195;SDS011;54122;53.538;49.366;2023-07-13T19:54:38;3.45;;;1.17;;
67195;SDS011;54122;53.538;49.366;2023-07-13T19:57:16;3.15;;;1.05;;
67195;SDS011;54122;53.538;49.366;2023-07-13T19:59:44;3.65;;;1.13;;
67195;SDS011;54122;53.538;49.366;2023-07-13T20:02:15;2.45;;;1.15;;
67195;SDS011;54122;53.538;49.366;2023-07-13T20:04:41;2.42;;;1.20;;
67195;SDS011;54122;53.538;49.366;2023-07-13T20:07:13;3.25;;;1.15;;
67195;SDS011;54122;53.538;49.366;2023-07-13T20:09:44;8.15;;;1.48;;
67195;SDS011;54122;53.538;49.366;2023-07-13T20:12:18;2.55;;;0.90;;